createdAt,value
2019-03-08T00:02:14.592Z,3.70
2019-03-08T00:04:45.108Z,3.17
2019-03-08T00:07:17.977Z,2.50
2019-03-08T00:09:48.583Z,2.83
2019-03-08T00:12:19.031Z,4.07
2019-03-08T00:14:52.114Z,3.57
2019-03-08T00:17:22.664Z,2.17
2019-03-08T00:19:57.995Z,5.13
2019-03-08T00:22:28.797Z,3.57
2019-03-08T00:24:59.348Z,5.67
2019-03-08T00:27:32.064Z,3.17
2019-03-08T00:30:04.771Z,3.50
2019-03-08T00:32:35.374Z,6.23
2019-03-08T00:35:06.256Z,3.33
2019-03-08T00:37:36.779Z,1.93
2019-03-08T00:40:07.697Z,4.07
2019-03-08T00:42:38.824Z,2.63
2019-03-08T00:45:17.404Z,2.60
2019-03-08T00:47:53.052Z,2.33
2019-03-08T00:50:23.832Z,4.53
2019-03-08T00:52:54.759Z,3.93
2019-03-08T00:55:25.244Z,3.43
2019-03-08T00:57:56.092Z,2.10
2019-03-08T01:00:26.739Z,3.50
2019-03-08T01:02:57.234Z,4.53
2019-03-08T01:05:30.290Z,3.97
2019-03-08T01:08:01.034Z,4.20
2019-03-08T01:10:34.290Z,7.33
2019-03-08T01:13:08.503Z,4.10
2019-03-08T01:15:39.108Z,3.67
2019-03-08T01:18:09.568Z,4.00
2019-03-08T01:20:40.694Z,2.70
2019-03-08T01:23:15.199Z,3.47
2019-03-08T01:25:45.799Z,2.93
2019-03-08T01:28:17.442Z,3.13
2019-03-08T01:30:48.212Z,5.50
2019-03-08T01:33:20.659Z,1.57
2019-03-08T01:35:51.224Z,3.43
2019-03-08T01:38:22.536Z,2.83
2019-03-08T01:40:56.298Z,3.30
2019-03-08T01:43:27.705Z,3.33
2019-03-08T01:45:59.552Z,3.27
2019-03-08T01:48:33.129Z,1.70
2019-03-08T01:51:13.244Z,4.83
2019-03-08T01:53:43.996Z,4.23
2019-03-08T01:56:14.543Z,2.03
2019-03-08T01:58:45.121Z,3.83
2019-03-08T02:01:18.578Z,3.87
2019-03-08T02:03:51.431Z,4.40
2019-03-08T02:06:24.711Z,4.27
2019-03-08T02:08:56.561Z,2.73
2019-03-08T02:11:30.272Z,3.30
2019-03-08T02:14:00.811Z,2.37
2019-03-08T02:16:31.423Z,4.60
2019-03-08T02:19:05.216Z,3.00
2019-03-08T02:21:38.945Z,2.10
2019-03-08T02:24:10.194Z,4.17
2019-03-08T02:26:40.779Z,2.93
2019-03-08T02:29:11.534Z,2.83
2019-03-08T02:31:49.211Z,4.23
2019-03-08T02:34:20.460Z,5.03
2019-03-08T02:36:51.111Z,2.30
2019-03-08T02:39:23.642Z,4.40
2019-03-08T02:41:54.672Z,2.13
2019-03-08T02:44:28.000Z,2.53
2019-03-08T02:47:07.378Z,2.40
2019-03-08T02:49:39.004Z,3.23
2019-03-08T02:52:09.717Z,3.83
2019-03-08T02:54:40.228Z,2.83
2019-03-08T02:57:12.703Z,5.63
2019-03-08T02:59:45.792Z,2.60
2019-03-08T03:02:17.801Z,2.63
2019-03-08T03:04:48.382Z,5.60
2019-03-08T03:07:19.064Z,2.53
2019-03-08T03:09:50.846Z,4.27
2019-03-08T03:12:21.428Z,4.47
2019-03-08T03:14:51.983Z,8.30
2019-03-08T03:17:22.661Z,1.97
2019-03-08T03:19:53.272Z,3.63
2019-03-08T03:22:25.279Z,3.40
2019-03-08T03:24:55.837Z,3.83
2019-03-08T03:27:26.451Z,1.50
2019-03-08T03:29:57.029Z,2.60
2019-03-08T03:32:27.805Z,2.97
2019-03-08T03:34:58.947Z,3.50
2019-03-08T03:37:29.640Z,3.53
2019-03-08T03:40:02.225Z,2.87
2019-03-08T03:42:34.637Z,4.13
2019-03-08T03:45:06.544Z,2.70
2019-03-08T03:47:37.376Z,2.47
2019-03-08T03:50:09.395Z,6.13
2019-03-08T03:52:42.885Z,4.10
2019-03-08T03:55:19.113Z,2.70
2019-03-08T03:57:55.247Z,2.33
2019-03-08T04:00:26.059Z,2.00
2019-03-08T04:02:57.125Z,3.33
2019-03-08T04:05:29.375Z,2.47
2019-03-08T04:08:03.501Z,2.93
2019-03-08T04:10:34.451Z,1.33
2019-03-08T04:13:04.911Z,2.10
2019-03-08T04:15:42.347Z,2.70
2019-03-08T04:18:17.367Z,2.63
2019-03-08T04:20:49.468Z,2.97
2019-03-08T04:23:28.228Z,3.40
2019-03-08T04:26:02.888Z,2.27
2019-03-08T04:28:36.137Z,2.67
2019-03-08T04:31:06.666Z,2.90
2019-03-08T04:33:40.310Z,2.03
2019-03-08T04:36:12.083Z,3.53
2019-03-08T04:38:45.316Z,3.83
2019-03-08T04:41:21.615Z,2.97
2019-03-08T04:43:55.346Z,3.40
2019-03-08T04:46:25.971Z,2.50
2019-03-08T04:48:58.845Z,4.57
2019-03-08T04:51:29.426Z,3.40
2019-03-08T04:53:59.918Z,4.83
2019-03-08T04:56:30.391Z,4.27
2019-03-08T04:59:01.159Z,4.50
2019-03-08T05:01:33.465Z,2.30
2019-03-08T05:04:04.787Z,1.43
2019-03-08T05:06:38.930Z,3.73
2019-03-08T05:09:09.753Z,2.10
2019-03-08T05:11:40.356Z,3.50
2019-03-08T05:14:10.975Z,3.47
2019-03-08T05:16:47.076Z,2.33
2019-03-08T05:19:20.033Z,2.80
2019-03-08T05:21:52.069Z,3.83
2019-03-08T05:24:23.098Z,3.33
2019-03-08T05:26:53.612Z,2.20
2019-03-08T05:29:24.434Z,3.70
2019-03-08T05:31:55.012Z,2.63
2019-03-08T05:34:26.285Z,2.67
2019-03-08T05:36:57.190Z,3.67
2019-03-08T05:39:31.723Z,5.23
2019-03-08T05:42:02.307Z,1.10
2019-03-08T05:44:33.832Z,4.33
2019-03-08T05:47:04.596Z,1.43
2019-03-08T05:49:35.315Z,2.97
2019-03-08T05:52:13.721Z,2.17
2019-03-08T05:54:44.426Z,2.27
2019-03-08T05:57:15.805Z,1.60
2019-03-08T05:59:46.633Z,1.63
2019-03-08T06:02:20.088Z,3.23
2019-03-08T06:04:53.519Z,3.87
2019-03-08T06:07:26.929Z,3.53
2019-03-08T06:10:01.260Z,3.07
2019-03-08T06:12:31.916Z,3.90
2019-03-08T06:15:08.209Z,4.27
2019-03-08T06:17:43.511Z,3.37
2019-03-08T06:20:18.833Z,2.27
2019-03-08T06:22:51.412Z,3.80
2019-03-08T06:25:22.631Z,3.20
2019-03-08T06:27:56.677Z,2.67
2019-03-08T06:30:27.328Z,2.13
2019-03-08T06:32:59.205Z,3.00
2019-03-08T06:35:30.252Z,2.97
2019-03-08T06:38:01.398Z,2.73
2019-03-08T06:40:33.119Z,2.50
2019-03-08T06:43:07.338Z,3.17
2019-03-08T06:45:38.154Z,2.77
2019-03-08T06:48:08.894Z,3.40
2019-03-08T06:50:42.511Z,2.93
2019-03-08T06:53:13.289Z,2.93
2019-03-08T06:55:46.376Z,5.13
2019-03-08T06:58:26.172Z,2.00
2019-03-08T07:01:19.934Z,3.53
2019-03-08T07:03:52.291Z,2.10
2019-03-08T07:06:25.740Z,2.87
2019-03-08T07:08:58.709Z,2.97
2019-03-08T07:11:30.643Z,2.93
2019-03-08T07:14:01.738Z,2.93
2019-03-08T07:16:34.473Z,1.07
2019-03-08T07:19:10.249Z,3.60
2019-03-08T07:22:01.456Z,2.20
2019-03-08T07:25:05.797Z,2.37
2019-03-08T07:27:55.818Z,3.40
2019-03-08T07:30:45.054Z,2.20
2019-03-08T07:33:35.038Z,3.73
2019-03-08T07:36:31.057Z,3.47
2019-03-08T07:39:21.337Z,1.70
2019-03-08T07:42:11.430Z,2.33
2019-03-08T07:45:03.963Z,3.17
2019-03-08T07:47:55.966Z,3.23
2019-03-08T07:50:46.970Z,2.13
2019-03-08T07:53:44.019Z,3.93
2019-03-08T07:56:24.136Z,1.70
2019-03-08T07:59:37.540Z,3.17
2019-03-08T08:02:17.954Z,4.33
2019-03-08T08:04:54.978Z,1.77
2019-03-08T08:07:50.166Z,2.40
2019-03-08T08:10:50.585Z,3.37
2019-03-08T08:13:38.273Z,4.63
2019-03-08T08:16:30.616Z,2.50
2019-03-08T08:19:12.345Z,5.17
2019-03-08T08:21:57.216Z,2.93
2019-03-08T08:24:34.160Z,2.43
2019-03-08T08:27:17.650Z,3.10
2019-03-08T08:30:08.841Z,3.83
2019-03-08T08:33:04.396Z,3.70
2019-03-08T08:36:07.566Z,2.80
2019-03-08T08:38:57.265Z,4.07
2019-03-08T08:41:50.165Z,4.27
2019-03-08T08:44:53.612Z,5.57
2019-03-08T08:47:58.463Z,2.63
2019-03-08T08:50:55.136Z,4.13
2019-03-08T08:53:38.971Z,5.17
2019-03-08T08:56:23.515Z,4.70
2019-03-08T08:59:17.725Z,4.97
2019-03-08T09:02:04.463Z,4.57
2019-03-08T09:04:57.867Z,6.17
2019-03-08T09:07:41.484Z,5.67
2019-03-08T09:10:29.353Z,5.37
2019-03-08T09:13:14.456Z,3.93
2019-03-08T09:15:53.746Z,5.40
2019-03-08T09:18:45.597Z,4.53
2019-03-08T09:21:23.912Z,3.70
2019-03-08T09:24:16.823Z,3.60
2019-03-08T09:26:56.452Z,3.27
2019-03-08T09:29:41.215Z,4.50
2019-03-08T09:32:41.240Z,4.93
2019-03-08T09:35:17.138Z,5.37
2019-03-08T09:37:53.897Z,4.93
2019-03-08T09:40:57.746Z,3.43
2019-03-08T09:43:56.458Z,4.27
2019-03-08T09:46:50.282Z,6.17
2019-03-08T09:49:46.067Z,7.30
2019-03-08T09:52:24.536Z,10.37
2019-03-08T09:55:07.215Z,7.37
2019-03-08T09:57:46.559Z,3.53
2019-03-08T10:00:43.582Z,2.93
2019-03-08T10:03:52.920Z,6.77
2019-03-08T10:06:54.571Z,6.10
2019-03-08T10:09:40.904Z,7.77
2019-03-08T10:12:21.192Z,5.97
2019-03-08T10:14:59.805Z,6.37
2019-03-08T10:17:46.588Z,7.37
2019-03-08T10:20:36.279Z,4.77
2019-03-08T10:23:30.277Z,6.93
2019-03-08T10:26:21.847Z,8.80
2019-03-08T10:29:10.178Z,7.23
2019-03-08T10:32:01.703Z,6.40
2019-03-08T10:34:43.035Z,6.47
2019-03-08T10:37:45.620Z,5.03
2019-03-08T10:40:39.294Z,5.87
2019-03-08T10:43:23.542Z,4.53
2019-03-08T10:46:00.852Z,6.67
2019-03-08T10:48:51.041Z,4.63
2019-03-08T10:51:43.152Z,5.47
2019-03-08T10:54:34.993Z,4.87
2019-03-08T10:57:19.349Z,2.97
2019-03-08T11:00:15.600Z,3.43
2019-03-08T11:03:02.651Z,42.50
2019-03-08T11:05:46.592Z,13.93
2019-03-08T11:08:53.727Z,6.23
2019-03-08T11:11:48.049Z,3.97
2019-03-08T11:14:26.311Z,6.97
2019-03-08T11:17:11.437Z,4.00
2019-03-08T11:20:07.179Z,9.50
2019-03-08T11:22:55.876Z,6.80
2019-03-08T11:25:45.010Z,9.47
2019-03-08T11:28:54.051Z,4.47
2019-03-08T11:31:45.259Z,5.23
2019-03-08T11:34:21.273Z,9.27
2019-03-08T11:37:13.844Z,9.90
2019-03-08T11:40:07.064Z,6.50
2019-03-08T11:42:45.308Z,8.23
2019-03-08T11:45:33.752Z,12.00
2019-03-08T11:48:17.080Z,12.60
2019-03-08T11:51:07.830Z,9.40
2019-03-08T11:53:55.992Z,24.80
2019-03-08T11:56:45.133Z,27.83
2019-03-08T11:59:37.743Z,44.40
2019-03-08T12:02:37.803Z,24.67
2019-03-08T12:05:20.119Z,22.03
2019-03-08T12:08:13.195Z,14.17
2019-03-08T12:11:04.314Z,12.50
2019-03-08T12:13:53.960Z,13.30
2019-03-08T12:16:39.147Z,19.37
2019-03-08T12:19:26.833Z,14.97
2019-03-08T12:22:11.427Z,18.53
2019-03-08T12:25:01.252Z,33.47
2019-03-08T12:27:43.418Z,15.93
2019-03-08T12:30:33.543Z,14.80
2019-03-08T12:33:31.747Z,15.57
2019-03-08T12:36:25.045Z,18.47
2019-03-08T12:39:07.259Z,15.17
2019-03-08T12:41:58.334Z,9.27
2019-03-08T12:44:35.076Z,15.70
2019-03-08T12:47:23.980Z,9.13
2019-03-08T12:50:17.083Z,24.27
2019-03-08T12:53:09.678Z,14.70
2019-03-08T12:55:51.821Z,18.97
2019-03-08T12:58:38.458Z,14.80
2019-03-08T13:01:37.408Z,18.43
2019-03-08T13:04:21.293Z,10.87
2019-03-08T13:07:20.287Z,13.97
2019-03-08T13:09:51.366Z,29.10
2019-03-08T13:12:22.222Z,14.93
2019-03-08T13:14:55.597Z,14.27
2019-03-08T13:17:26.684Z,13.73
2019-03-08T13:19:57.409Z,11.20
2019-03-08T13:22:30.075Z,8.60
2019-03-08T13:25:03.947Z,6.13
2019-03-08T13:27:37.930Z,15.10
2019-03-08T13:30:15.574Z,8.20
2019-03-08T13:32:49.914Z,12.33
2019-03-08T13:35:23.828Z,10.53
2019-03-08T13:37:56.937Z,10.07
2019-03-08T13:40:27.905Z,10.33
2019-03-08T13:43:05.234Z,10.43
2019-03-08T13:45:39.309Z,5.17
2019-03-08T13:48:11.885Z,9.97
2019-03-08T13:50:44.231Z,7.07
2019-03-08T13:53:19.341Z,7.00
2019-03-08T13:55:52.973Z,8.00
2019-03-08T13:58:28.152Z,9.80
2019-03-08T14:01:08.192Z,6.00
2019-03-08T14:03:41.103Z,9.57
2019-03-08T14:06:15.443Z,6.50
2019-03-08T14:08:46.837Z,9.73
2019-03-08T14:11:17.984Z,6.00
2019-03-08T14:13:53.260Z,9.10
2019-03-08T14:16:27.275Z,9.10
2019-03-08T14:19:01.785Z,10.00
2019-03-08T14:21:32.993Z,14.73
2019-03-08T14:24:04.047Z,14.57
2019-03-08T14:26:35.743Z,9.43
2019-03-08T14:29:06.494Z,9.67
2019-03-08T14:31:59.153Z,15.70
2019-03-08T14:34:29.481Z,11.77
2019-03-08T14:37:00.397Z,16.27
2019-03-08T14:39:32.707Z,12.87
2019-03-08T14:42:27.107Z,13.67
2019-03-08T14:45:10.938Z,13.03
2019-03-08T14:47:46.483Z,13.53
2019-03-08T14:50:21.845Z,13.03
2019-03-08T14:52:55.153Z,14.87
2019-03-08T14:55:25.740Z,17.17
2019-03-08T14:57:58.926Z,15.83
2019-03-08T15:00:32.514Z,18.03
2019-03-08T15:03:10.189Z,14.33
2019-03-08T15:05:41.091Z,11.67
2019-03-08T15:08:13.631Z,11.70
2019-03-08T15:10:47.163Z,9.13
2019-03-08T15:13:24.070Z,9.23
2019-03-08T15:16:01.665Z,13.23
2019-03-08T15:18:31.202Z,11.03
2019-03-08T15:21:03.099Z,10.30
2019-03-08T15:23:33.870Z,7.77
2019-03-08T15:26:05.000Z,10.80
2019-03-08T15:28:38.274Z,11.80
2019-03-08T15:31:09.064Z,8.07
2019-03-08T15:33:39.733Z,11.70
2019-03-08T15:36:10.641Z,5.43
2019-03-08T15:38:43.617Z,7.17
2019-03-08T15:41:14.731Z,6.00
2019-03-08T15:43:50.801Z,6.97
2019-03-08T15:46:22.481Z,9.27
2019-03-08T15:48:54.841Z,8.77
2019-03-08T15:51:28.974Z,7.63
2019-03-08T15:54:00.123Z,11.37
2019-03-08T15:56:30.921Z,7.47
2019-03-08T15:59:03.303Z,12.27
2019-03-08T16:01:37.938Z,7.97
2019-03-08T16:04:12.152Z,7.80
2019-03-08T16:06:43.813Z,9.97
2019-03-08T16:09:15.988Z,8.17
2019-03-08T16:11:47.983Z,8.87
2019-03-08T16:14:19.835Z,11.93
2019-03-08T16:16:50.738Z,10.40
2019-03-08T16:19:24.822Z,13.10
2019-03-08T16:21:55.479Z,11.73
2019-03-08T16:24:31.097Z,13.30
2019-03-08T16:27:03.919Z,13.10
2019-03-08T16:29:37.366Z,7.70
2019-03-08T16:32:36.442Z,9.73
2019-03-08T16:35:07.024Z,9.67
2019-03-08T16:37:43.952Z,12.23
2019-03-08T16:40:30.132Z,8.03
2019-03-08T16:43:12.314Z,10.07
2019-03-08T16:45:56.861Z,14.80
2019-03-08T16:48:46.451Z,11.30
2019-03-08T16:51:36.037Z,9.83
2019-03-08T16:54:24.033Z,10.53
2019-03-08T16:57:19.568Z,10.00
2019-03-08T16:59:58.667Z,11.80
2019-03-08T17:02:50.680Z,10.37
2019-03-08T17:05:34.922Z,15.47
2019-03-08T17:08:28.213Z,9.53
2019-03-08T17:11:15.652Z,9.67
2019-03-08T17:14:00.729Z,12.00
2019-03-08T17:16:53.531Z,14.67
2019-03-08T17:19:46.192Z,11.97
2019-03-08T17:22:24.626Z,11.00
2019-03-08T17:25:10.529Z,16.00
2019-03-08T17:28:03.665Z,14.43
2019-03-08T17:30:59.623Z,18.13
2019-03-08T17:33:51.491Z,13.20
2019-03-08T17:36:47.201Z,13.00
2019-03-08T17:39:27.099Z,14.20
2019-03-08T17:42:23.738Z,14.67
2019-03-08T17:45:21.171Z,14.13
2019-03-08T17:51:53.400Z,12.90
2019-03-08T17:54:42.390Z,15.63
2019-03-08T17:57:40.911Z,17.50
2019-03-08T18:00:29.306Z,15.33
2019-03-08T18:03:24.040Z,17.23
2019-03-08T18:06:13.678Z,16.50
2019-03-08T18:08:58.891Z,18.27
2019-03-08T18:11:48.107Z,18.60
2019-03-08T18:14:42.475Z,17.23
2019-03-08T18:17:32.150Z,18.43
2019-03-08T18:20:17.054Z,13.67
2019-03-08T18:23:06.369Z,18.47
2019-03-08T18:25:47.422Z,14.97
2019-03-08T18:28:40.268Z,12.03
2019-03-08T18:31:35.993Z,10.57
2019-03-08T18:34:18.211Z,18.87
2019-03-08T18:37:06.461Z,14.20
2019-03-08T18:39:59.328Z,18.27
2019-03-08T18:42:56.026Z,19.10
2019-03-08T18:46:00.833Z,23.10
2019-03-08T18:48:42.349Z,14.17
2019-03-08T18:51:24.029Z,17.63
2019-03-08T18:54:04.700Z,18.37
2019-03-08T18:56:50.168Z,22.67
2019-03-08T18:59:57.889Z,21.70
2019-03-08T19:02:46.523Z,12.63
2019-03-08T19:05:39.245Z,16.27
2019-03-08T19:08:26.648Z,19.77
2019-03-08T19:11:22.408Z,17.53
2019-03-08T19:14:20.434Z,19.20
2019-03-08T19:16:57.441Z,22.33
2019-03-08T19:19:52.892Z,22.17
2019-03-08T19:22:41.362Z,26.07
2019-03-08T19:25:31.041Z,21.37
2019-03-08T19:28:23.900Z,16.80
2019-03-08T19:31:27.977Z,15.10
2019-03-08T19:34:09.005Z,19.13
2019-03-08T19:36:49.475Z,16.77
2019-03-08T19:39:37.806Z,18.50
2019-03-08T19:42:30.852Z,19.60
2019-03-08T19:45:35.057Z,16.07
2019-03-08T19:48:23.346Z,15.40
2019-03-08T19:51:06.254Z,17.90
2019-03-08T19:53:53.851Z,18.23
2019-03-08T19:56:36.851Z,16.17
2019-03-08T19:59:13.841Z,22.00
2019-03-08T20:02:12.467Z,16.47
2019-03-08T20:05:03.852Z,17.13
2019-03-08T20:07:52.927Z,19.63
2019-03-08T20:10:32.299Z,17.87
2019-03-08T20:13:31.298Z,16.83
2019-03-08T20:16:39.389Z,11.27
2019-03-08T20:19:27.594Z,15.63
2019-03-08T20:22:04.612Z,18.67
2019-03-08T20:24:43.532Z,17.93
2019-03-08T20:27:36.199Z,12.87
2019-03-08T20:30:18.202Z,16.20
2019-03-08T20:33:13.199Z,17.93
2019-03-08T20:35:52.345Z,15.23
2019-03-08T20:38:51.336Z,18.17
2019-03-08T20:41:41.003Z,16.87
2019-03-08T20:44:22.416Z,18.37
2019-03-08T20:47:00.625Z,14.90
2019-03-08T20:49:31.214Z,23.97
2019-03-08T20:52:02.088Z,10.60
2019-03-08T20:54:32.707Z,16.80
2019-03-08T20:57:03.277Z,14.80
2019-03-08T20:59:35.472Z,15.10
2019-03-08T21:02:09.029Z,21.27
2019-03-08T21:04:40.699Z,19.57
2019-03-08T21:07:12.336Z,13.43
2019-03-08T21:09:45.165Z,13.37
2019-03-08T21:12:17.244Z,20.43
2019-03-08T21:14:47.829Z,17.37
2019-03-08T21:17:19.090Z,13.10
2019-03-08T21:19:49.906Z,16.83
2019-03-08T21:22:20.560Z,15.90
2019-03-08T21:24:51.096Z,16.67
2019-03-08T21:27:21.599Z,15.13
2019-03-08T21:29:52.489Z,13.40
2019-03-08T21:32:23.099Z,14.23
2019-03-08T21:34:58.186Z,15.90
2019-03-08T21:37:28.829Z,16.00
2019-03-08T21:39:59.396Z,16.37
2019-03-08T21:42:29.949Z,16.63
2019-03-08T21:45:01.611Z,15.13
2019-03-08T21:47:32.413Z,16.87
2019-03-08T21:50:02.930Z,17.13
2019-03-08T21:52:37.092Z,18.30
2019-03-08T21:55:08.201Z,14.00
2019-03-08T21:57:38.891Z,14.03
2019-03-08T22:00:17.159Z,12.40
2019-03-08T22:02:48.264Z,15.37
2019-03-08T22:05:23.224Z,16.57
2019-03-08T22:07:53.818Z,18.47
2019-03-08T22:10:36.913Z,11.83
2019-03-08T22:13:07.723Z,13.07
2019-03-08T22:15:38.931Z,14.03
2019-03-08T22:18:10.630Z,20.30
2019-03-08T22:20:41.289Z,19.00
2019-03-08T22:23:12.173Z,14.30
2019-03-08T22:25:42.724Z,14.63
2019-03-08T22:28:13.328Z,15.57
2019-03-08T22:30:43.892Z,15.07
2019-03-08T22:33:14.468Z,16.33
2019-03-08T22:35:45.150Z,12.17
2019-03-08T22:38:15.594Z,17.97
2019-03-08T22:40:46.227Z,16.23
2019-03-08T22:43:16.789Z,15.17
2019-03-08T22:45:50.766Z,11.57
2019-03-08T22:48:21.814Z,13.87
2019-03-08T22:50:54.243Z,12.90
2019-03-08T22:53:28.813Z,15.40
2019-03-08T22:55:59.765Z,14.63
2019-03-08T22:58:30.231Z,18.83
2019-03-08T23:01:11.531Z,12.10
2019-03-08T23:03:47.492Z,15.20
2019-03-08T23:06:18.388Z,11.87
2019-03-08T23:08:48.997Z,11.40
2019-03-08T23:11:24.932Z,14.40
2019-03-08T23:13:55.480Z,8.57
2019-03-08T23:16:26.159Z,15.50
2019-03-08T23:18:56.707Z,13.77
2019-03-08T23:21:29.351Z,22.20
2019-03-08T23:23:59.828Z,11.20
2019-03-08T23:26:32.799Z,12.83
2019-03-08T23:29:07.827Z,14.93
2019-03-08T23:32:03.459Z,11.53
2019-03-08T23:34:34.508Z,14.03
2019-03-08T23:37:05.112Z,11.17
2019-03-08T23:39:38.440Z,14.03
2019-03-08T23:42:09.008Z,13.30
2019-03-08T23:44:42.482Z,11.67
2019-03-08T23:47:12.963Z,14.10
2019-03-08T23:49:47.080Z,8.47
2019-03-08T23:52:17.622Z,14.57
2019-03-08T23:54:48.601Z,16.80
2019-03-08T23:57:19.185Z,13.80
2019-03-08T23:59:49.687Z,13.57
